sensor_id;sensor_type;location;lat;lon;timestamp;P1;durP1;ratioP1;P2;durP2;ratioP2
32786;SDS011;19139;49.372;8.580;2023-09-08T00:02:27;3.47;;;3.17;;
32786;SDS011;19139;49.372;8.580;2023-09-08T00:04:54;3.20;;;2.93;;
32786;SDS011;19139;49.372;8.580;2023-09-08T00:07:21;3.70;;;3.40;;
32786;SDS011;19139;49.372;8.580;2023-09-08T00:09:48;3.27;;;2.97;;
32786;SDS011;19139;49.372;8.580;2023-09-08T00:12:15;3.13;;;2.83;;
32786;SDS011;19139;49.372;8.580;2023-09-08T00:14:42;3.93;;;3.27;;
32786;SDS011;19139;49.372;8.580;2023-09-08T00:17:08;3.43;;;3.13;;
32786;SDS011;19139;49.372;8.580;2023-09-08T00:19:35;3.20;;;2.90;;
32786;SDS011;19139;49.372;8.580;2023-09-08T00:22:03;3.60;;;3.30;;
32786;SDS011;19139;49.372;8.580;2023-09-08T00:24:32;3.03;;;2.73;;
32786;SDS011;19139;49.372;8.580;2023-09-08T00:26:59;3.60;;;3.30;;
32786;SDS011;19139;49.372;8.580;2023-09-08T00:29:26;3.40;;;3.10;;
32786;SDS011;19139;49.372;8.580;2023-09-08T00:31:53;3.30;;;3.00;;
32786;SDS011;19139;49.372;8.580;2023-09-08T00:34:19;3.53;;;3.23;;
32786;SDS011;19139;49.372;8.580;2023-09-08T00:36:46;3.80;;;3.40;;
32786;SDS011;19139;49.372;8.580;2023-09-08T00:39:13;4.13;;;3.30;;
32786;SDS011;19139;49.372;8.580;2023-09-08T00:41:39;3.50;;;3.20;;
32786;SDS011;19139;49.372;8.580;2023-09-08T00:44:06;3.33;;;3.00;;
32786;SDS011;19139;49.372;8.580;2023-09-08T00:46:35;3.40;;;3.10;;
32786;SDS011;19139;49.372;8.580;2023-09-08T00:49:02;3.07;;;2.83;;
32786;SDS011;19139;49.372;8.580;2023-09-08T00:51:28;3.53;;;3.23;;
32786;SDS011;19139;49.372;8.580;2023-09-08T00:53:55;3.50;;;3.13;;
32786;SDS011;19139;49.372;8.580;2023-09-08T00:56:23;3.30;;;3.00;;
32786;SDS011;19139;49.372;8.580;2023-09-08T00:58:49;3.33;;;3.03;;
32786;SDS011;19139;49.372;8.580;2023-09-08T01:01:16;2.90;;;2.70;;
32786;SDS011;19139;49.372;8.580;2023-09-08T01:03:43;4.20;;;3.83;;
32786;SDS011;19139;49.372;8.580;2023-09-08T01:06:10;3.40;;;3.10;;
32786;SDS011;19139;49.372;8.580;2023-09-08T01:08:38;4.07;;;3.53;;
32786;SDS011;19139;49.372;8.580;2023-09-08T01:11:05;3.30;;;3.00;;
32786;SDS011;19139;49.372;8.580;2023-09-08T01:13:32;3.57;;;3.27;;
32786;SDS011;19139;49.372;8.580;2023-09-08T01:15:59;3.53;;;3.23;;
32786;SDS011;19139;49.372;8.580;2023-09-08T01:18:26;4.13;;;3.73;;
32786;SDS011;19139;49.372;8.580;2023-09-08T01:21:00;3.47;;;3.17;;
32786;SDS011;19139;49.372;8.580;2023-09-08T01:23:39;2.77;;;2.57;;
32786;SDS011;19139;49.372;8.580;2023-09-08T01:26:42;3.57;;;3.27;;
32786;SDS011;19139;49.372;8.580;2023-09-08T01:29:09;2.87;;;2.63;;
32786;SDS011;19139;49.372;8.580;2023-09-08T01:31:37;3.40;;;3.10;;
32786;SDS011;19139;49.372;8.580;2023-09-08T01:34:04;3.43;;;3.13;;
32786;SDS011;19139;49.372;8.580;2023-09-08T01:36:36;3.67;;;3.37;;
32786;SDS011;19139;49.372;8.580;2023-09-08T01:39:03;3.70;;;3.20;;
32786;SDS011;19139;49.372;8.580;2023-09-08T01:41:30;3.53;;;2.97;;
32786;SDS011;19139;49.372;8.580;2023-09-08T01:43:58;3.27;;;2.97;;
32786;SDS011;19139;49.372;8.580;2023-09-08T01:46:26;3.17;;;2.87;;
32786;SDS011;19139;49.372;8.580;2023-09-08T01:48:52;3.33;;;3.10;;
32786;SDS011;19139;49.372;8.580;2023-09-08T01:51:19;3.53;;;3.23;;
32786;SDS011;19139;49.372;8.580;2023-09-08T01:53:46;3.80;;;3.50;;
32786;SDS011;19139;49.372;8.580;2023-09-08T01:56:12;3.70;;;3.40;;
32786;SDS011;19139;49.372;8.580;2023-09-08T01:58:39;3.50;;;3.20;;
32786;SDS011;19139;49.372;8.580;2023-09-08T02:01:06;3.67;;;3.37;;
32786;SDS011;19139;49.372;8.580;2023-09-08T02:03:32;3.27;;;2.97;;
32786;SDS011;19139;49.372;8.580;2023-09-08T02:05:59;3.27;;;2.97;;
32786;SDS011;19139;49.372;8.580;2023-09-08T02:08:26;3.27;;;2.97;;
32786;SDS011;19139;49.372;8.580;2023-09-08T02:10:53;3.30;;;3.00;;
32786;SDS011;19139;49.372;8.580;2023-09-08T02:13:19;3.50;;;3.20;;
32786;SDS011;19139;49.372;8.580;2023-09-08T02:15:46;3.03;;;2.83;;
32786;SDS011;19139;49.372;8.580;2023-09-08T02:18:13;3.50;;;3.20;;
32786;SDS011;19139;49.372;8.580;2023-09-08T02:20:40;3.67;;;3.37;;
32786;SDS011;19139;49.372;8.580;2023-09-08T02:23:07;3.43;;;3.10;;
32786;SDS011;19139;49.372;8.580;2023-09-08T02:25:34;3.50;;;3.20;;
32786;SDS011;19139;49.372;8.580;2023-09-08T02:28:01;3.57;;;3.27;;
32786;SDS011;19139;49.372;8.580;2023-09-08T02:30:27;3.57;;;3.27;;
32786;SDS011;19139;49.372;8.580;2023-09-08T02:32:54;3.33;;;2.80;;
32786;SDS011;19139;49.372;8.580;2023-09-08T02:35:23;3.37;;;3.07;;
32786;SDS011;19139;49.372;8.580;2023-09-08T02:37:50;3.47;;;3.17;;
32786;SDS011;19139;49.372;8.580;2023-09-08T02:40:17;3.20;;;3.00;;
32786;SDS011;19139;49.372;8.580;2023-09-08T02:42:45;3.37;;;3.07;;
32786;SDS011;19139;49.372;8.580;2023-09-08T02:45:12;3.27;;;2.97;;
32786;SDS011;19139;49.372;8.580;2023-09-08T02:47:38;3.00;;;2.80;;
32786;SDS011;19139;49.372;8.580;2023-09-08T02:50:05;3.00;;;2.73;;
32786;SDS011;19139;49.372;8.580;2023-09-08T02:52:33;3.50;;;3.20;;
32786;SDS011;19139;49.372;8.580;2023-09-08T02:54:59;3.23;;;2.93;;
32786;SDS011;19139;49.372;8.580;2023-09-08T02:57:26;3.60;;;3.30;;
32786;SDS011;19139;49.372;8.580;2023-09-08T02:59:53;3.37;;;3.03;;
32786;SDS011;19139;49.372;8.580;2023-09-08T03:02:23;3.30;;;3.00;;
32786;SDS011;19139;49.372;8.580;2023-09-08T03:04:51;3.13;;;2.83;;
32786;SDS011;19139;49.372;8.580;2023-09-08T03:07:18;3.30;;;2.90;;
32786;SDS011;19139;49.372;8.580;2023-09-08T03:09:44;3.63;;;3.33;;
32786;SDS011;19139;49.372;8.580;2023-09-08T03:12:11;3.60;;;3.30;;
32786;SDS011;19139;49.372;8.580;2023-09-08T03:14:38;2.97;;;2.70;;
32786;SDS011;19139;49.372;8.580;2023-09-08T03:17:05;4.30;;;3.90;;
32786;SDS011;19139;49.372;8.580;2023-09-08T03:19:31;3.37;;;3.07;;
32786;SDS011;19139;49.372;8.580;2023-09-08T03:21:58;3.80;;;3.50;;
32786;SDS011;19139;49.372;8.580;2023-09-08T03:24:25;3.33;;;3.03;;
32786;SDS011;19139;49.372;8.580;2023-09-08T03:26:51;3.53;;;3.23;;
32786;SDS011;19139;49.372;8.580;2023-09-08T03:29:18;3.47;;;3.17;;
32786;SDS011;19139;49.372;8.580;2023-09-08T03:31:45;3.80;;;3.37;;
32786;SDS011;19139;49.372;8.580;2023-09-08T03:34:12;3.67;;;3.37;;
32786;SDS011;19139;49.372;8.580;2023-09-08T03:36:39;4.10;;;3.33;;
32786;SDS011;19139;49.372;8.580;2023-09-08T03:39:06;3.43;;;3.13;;
32786;SDS011;19139;49.372;8.580;2023-09-08T03:41:35;3.50;;;3.20;;
32786;SDS011;19139;49.372;8.580;2023-09-08T03:44:01;3.67;;;3.37;;
32786;SDS011;19139;49.372;8.580;2023-09-08T03:46:28;3.50;;;2.90;;
32786;SDS011;19139;49.372;8.580;2023-09-08T03:48:55;3.33;;;3.10;;
32786;SDS011;19139;49.372;8.580;2023-09-08T03:51:27;3.60;;;3.30;;
32786;SDS011;19139;49.372;8.580;2023-09-08T03:53:54;2.57;;;2.37;;
32786;SDS011;19139;49.372;8.580;2023-09-08T03:56:21;3.00;;;2.70;;
32786;SDS011;19139;49.372;8.580;2023-09-08T03:58:48;3.90;;;3.60;;
32786;SDS011;19139;49.372;8.580;2023-09-08T04:01:15;3.30;;;3.00;;
32786;SDS011;19139;49.372;8.580;2023-09-08T04:03:42;3.63;;;3.33;;
32786;SDS011;19139;49.372;8.580;2023-09-08T04:06:10;4.00;;;3.60;;
32786;SDS011;19139;49.372;8.580;2023-09-08T04:08:37;3.13;;;2.90;;
32786;SDS011;19139;49.372;8.580;2023-09-08T04:11:04;3.80;;;3.50;;
32786;SDS011;19139;49.372;8.580;2023-09-08T04:13:30;3.80;;;3.30;;
32786;SDS011;19139;49.372;8.580;2023-09-08T04:15:58;3.57;;;3.27;;
32786;SDS011;19139;49.372;8.580;2023-09-08T04:18:24;3.47;;;3.07;;
32786;SDS011;19139;49.372;8.580;2023-09-08T04:20:51;3.87;;;3.50;;
32786;SDS011;19139;49.372;8.580;2023-09-08T04:23:18;3.30;;;3.00;;
32786;SDS011;19139;49.372;8.580;2023-09-08T04:25:45;3.73;;;3.20;;
32786;SDS011;19139;49.372;8.580;2023-09-08T04:28:12;4.13;;;3.20;;
32786;SDS011;19139;49.372;8.580;2023-09-08T04:30:38;3.57;;;3.27;;
32786;SDS011;19139;49.372;8.580;2023-09-08T04:33:05;3.57;;;3.27;;
32786;SDS011;19139;49.372;8.580;2023-09-08T04:35:32;3.93;;;3.53;;
32786;SDS011;19139;49.372;8.580;2023-09-08T04:37:59;3.87;;;3.50;;
32786;SDS011;19139;49.372;8.580;2023-09-08T04:40:29;3.23;;;2.97;;
32786;SDS011;19139;49.372;8.580;2023-09-08T04:42:56;3.67;;;3.37;;
32786;SDS011;19139;49.372;8.580;2023-09-08T04:45:23;3.30;;;3.00;;
32786;SDS011;19139;49.372;8.580;2023-09-08T04:47:49;4.07;;;3.77;;
32786;SDS011;19139;49.372;8.580;2023-09-08T04:50:16;3.30;;;3.10;;
32786;SDS011;19139;49.372;8.580;2023-09-08T04:52:44;4.03;;;3.57;;
32786;SDS011;19139;49.372;8.580;2023-09-08T04:55:11;3.73;;;3.43;;
32786;SDS011;19139;49.372;8.580;2023-09-08T04:57:37;3.67;;;3.37;;
32786;SDS011;19139;49.372;8.580;2023-09-08T05:00:05;3.57;;;3.27;;
32786;SDS011;19139;49.372;8.580;2023-09-08T05:02:32;3.63;;;3.33;;
32786;SDS011;19139;49.372;8.580;2023-09-08T05:04:59;3.50;;;3.20;;
32786;SDS011;19139;49.372;8.580;2023-09-08T05:07:26;3.67;;;3.37;;
32786;SDS011;19139;49.372;8.580;2023-09-08T05:09:52;3.70;;;3.40;;
32786;SDS011;19139;49.372;8.580;2023-09-08T05:12:22;3.93;;;3.53;;
32786;SDS011;19139;49.372;8.580;2023-09-08T05:14:49;3.70;;;3.37;;
32786;SDS011;19139;49.372;8.580;2023-09-08T05:17:23;3.37;;;3.07;;
32786;SDS011;19139;49.372;8.580;2023-09-08T05:19:50;3.70;;;3.40;;
32786;SDS011;19139;49.372;8.580;2023-09-08T05:22:16;3.67;;;3.37;;
32786;SDS011;19139;49.372;8.580;2023-09-08T05:24:43;4.07;;;3.67;;
32786;SDS011;19139;49.372;8.580;2023-09-08T05:27:10;4.27;;;3.93;;
32786;SDS011;19139;49.372;8.580;2023-09-08T05:29:36;3.80;;;3.50;;
32786;SDS011;19139;49.372;8.580;2023-09-08T05:32:03;9.33;;;6.87;;
32786;SDS011;19139;49.372;8.580;2023-09-08T05:34:30;8.17;;;6.93;;
32786;SDS011;19139;49.372;8.580;2023-09-08T05:36:57;9.93;;;7.47;;
32786;SDS011;19139;49.372;8.580;2023-09-08T05:39:23;9.63;;;7.40;;
32786;SDS011;19139;49.372;8.580;2023-09-08T05:41:50;13.27;;;9.00;;
32786;SDS011;19139;49.372;8.580;2023-09-08T05:44:17;10.90;;;8.30;;
32786;SDS011;19139;49.372;8.580;2023-09-08T05:46:43;15.07;;;9.13;;
32786;SDS011;19139;49.372;8.580;2023-09-08T05:49:10;11.13;;;8.07;;
32786;SDS011;19139;49.372;8.580;2023-09-08T05:51:37;9.80;;;8.10;;
32786;SDS011;19139;49.372;8.580;2023-09-08T05:54:04;9.93;;;8.73;;
32786;SDS011;19139;49.372;8.580;2023-09-08T05:56:30;9.97;;;8.60;;
32786;SDS011;19139;49.372;8.580;2023-09-08T05:58:58;9.23;;;7.83;;
32786;SDS011;19139;49.372;8.580;2023-09-08T06:01:24;9.33;;;8.30;;
32786;SDS011;19139;49.372;8.580;2023-09-08T06:03:51;9.43;;;8.27;;
32786;SDS011;19139;49.372;8.580;2023-09-08T06:06:18;11.57;;;8.23;;
32786;SDS011;19139;49.372;8.580;2023-09-08T06:08:45;11.50;;;9.53;;
32786;SDS011;19139;49.372;8.580;2023-09-08T06:11:11;8.73;;;7.80;;
32786;SDS011;19139;49.372;8.580;2023-09-08T06:13:38;10.47;;;8.50;;
32786;SDS011;19139;49.372;8.580;2023-09-08T06:16:05;10.57;;;8.47;;
32786;SDS011;19139;49.372;8.580;2023-09-08T06:18:32;11.03;;;9.50;;
32786;SDS011;19139;49.372;8.580;2023-09-08T06:21:00;11.30;;;9.50;;
32786;SDS011;19139;49.372;8.580;2023-09-08T06:23:27;12.57;;;8.97;;
32786;SDS011;19139;49.372;8.580;2023-09-08T06:25:56;13.37;;;9.73;;
32786;SDS011;19139;49.372;8.580;2023-09-08T06:28:26;14.50;;;9.83;;
32786;SDS011;19139;49.372;8.580;2023-09-08T06:30:54;10.40;;;9.27;;
32786;SDS011;19139;49.372;8.580;2023-09-08T06:33:20;10.10;;;8.80;;
32786;SDS011;19139;49.372;8.580;2023-09-08T06:35:48;11.60;;;10.40;;
32786;SDS011;19139;49.372;8.580;2023-09-08T06:38:15;11.40;;;10.17;;
32786;SDS011;19139;49.372;8.580;2023-09-08T06:40:42;9.60;;;8.60;;
32786;SDS011;19139;49.372;8.580;2023-09-08T06:43:09;10.57;;;8.40;;
32786;SDS011;19139;49.372;8.580;2023-09-08T06:45:37;13.63;;;9.97;;
32786;SDS011;19139;49.372;8.580;2023-09-08T06:48:06;10.83;;;9.73;;
32786;SDS011;19139;49.372;8.580;2023-09-08T06:50:33;11.07;;;9.83;;
32786;SDS011;19139;49.372;8.580;2023-09-08T06:53:01;9.60;;;8.60;;
32786;SDS011;19139;49.372;8.580;2023-09-08T06:55:27;13.30;;;10.10;;
32786;SDS011;19139;49.372;8.580;2023-09-08T06:57:54;11.43;;;8.87;;
32786;SDS011;19139;49.372;8.580;2023-09-08T07:00:21;10.33;;;8.87;;
32786;SDS011;19139;49.372;8.580;2023-09-08T07:02:48;11.23;;;9.70;;
32786;SDS011;19139;49.372;8.580;2023-09-08T07:05:16;10.83;;;9.17;;
32786;SDS011;19139;49.372;8.580;2023-09-08T07:07:43;11.03;;;8.93;;
32786;SDS011;19139;49.372;8.580;2023-09-08T07:10:19;9.13;;;8.23;;
32786;SDS011;19139;49.372;8.580;2023-09-08T07:12:46;10.23;;;8.80;;
32786;SDS011;19139;49.372;8.580;2023-09-08T07:15:14;9.60;;;8.63;;
32786;SDS011;19139;49.372;8.580;2023-09-08T07:17:41;9.13;;;8.20;;
32786;SDS011;19139;49.372;8.580;2023-09-08T07:20:08;10.70;;;9.07;;
32786;SDS011;19139;49.372;8.580;2023-09-08T07:22:35;13.13;;;10.07;;
32786;SDS011;19139;49.372;8.580;2023-09-08T07:25:02;10.57;;;8.63;;
32786;SDS011;19139;49.372;8.580;2023-09-08T07:27:29;9.77;;;8.33;;
32786;SDS011;19139;49.372;8.580;2023-09-08T07:29:56;11.73;;;8.50;;
32786;SDS011;19139;49.372;8.580;2023-09-08T07:32:22;10.43;;;8.03;;
32786;SDS011;19139;49.372;8.580;2023-09-08T07:34:50;9.70;;;8.63;;
32786;SDS011;19139;49.372;8.580;2023-09-08T07:37:22;9.03;;;8.10;;
32786;SDS011;19139;49.372;8.580;2023-09-08T07:39:49;8.20;;;7.30;;
32786;SDS011;19139;49.372;8.580;2023-09-08T07:42:16;13.73;;;8.23;;
32786;SDS011;19139;49.372;8.580;2023-09-08T07:44:44;9.43;;;8.13;;
32786;SDS011;19139;49.372;8.580;2023-09-08T07:47:11;11.20;;;8.07;;
32786;SDS011;19139;49.372;8.580;2023-09-08T07:49:38;8.87;;;8.03;;
32786;SDS011;19139;49.372;8.580;2023-09-08T07:52:04;10.20;;;8.07;;
32786;SDS011;19139;49.372;8.580;2023-09-08T07:54:33;8.90;;;7.50;;
32786;SDS011;19139;49.372;8.580;2023-09-08T07:57:00;11.30;;;7.93;;
32786;SDS011;19139;49.372;8.580;2023-09-08T07:59:26;8.27;;;7.03;;
32786;SDS011;19139;49.372;8.580;2023-09-08T08:01:53;9.37;;;7.70;;
32786;SDS011;19139;49.372;8.580;2023-09-08T08:04:20;7.83;;;7.00;;
32786;SDS011;19139;49.372;8.580;2023-09-08T08:06:47;8.27;;;7.50;;
32786;SDS011;19139;49.372;8.580;2023-09-08T08:09:15;10.37;;;7.87;;
32786;SDS011;19139;49.372;8.580;2023-09-08T08:11:42;8.17;;;7.30;;
32786;SDS011;19139;49.372;8.580;2023-09-08T08:14:08;8.27;;;7.03;;
32786;SDS011;19139;49.372;8.580;2023-09-08T08:16:35;8.63;;;6.63;;
32786;SDS011;19139;49.372;8.580;2023-09-08T08:19:02;8.17;;;7.30;;
32786;SDS011;19139;49.372;8.580;2023-09-08T08:21:29;8.27;;;7.33;;
32786;SDS011;19139;49.372;8.580;2023-09-08T08:23:56;7.50;;;6.77;;
32786;SDS011;19139;49.372;8.580;2023-09-08T08:26:23;9.70;;;6.30;;
32786;SDS011;19139;49.372;8.580;2023-09-08T08:28:53;8.00;;;6.60;;
32786;SDS011;19139;49.372;8.580;2023-09-08T08:31:20;7.00;;;6.30;;
32786;SDS011;19139;49.372;8.580;2023-09-08T08:33:46;7.03;;;6.33;;
32786;SDS011;19139;49.372;8.580;2023-09-08T08:36:13;7.57;;;6.87;;
32786;SDS011;19139;49.372;8.580;2023-09-08T08:38:41;7.80;;;6.37;;
32786;SDS011;19139;49.372;8.580;2023-09-08T08:41:07;7.30;;;6.30;;
32786;SDS011;19139;49.372;8.580;2023-09-08T08:43:34;7.67;;;6.47;;
32786;SDS011;19139;49.372;8.580;2023-09-08T08:46:01;6.90;;;6.10;;
32786;SDS011;19139;49.372;8.580;2023-09-08T08:48:29;7.97;;;6.60;;
32786;SDS011;19139;49.372;8.580;2023-09-08T08:50:57;6.40;;;5.80;;
32786;SDS011;19139;49.372;8.580;2023-09-08T08:53:25;7.23;;;6.53;;
32786;SDS011;19139;49.372;8.580;2023-09-08T08:55:53;6.70;;;6.10;;
32786;SDS011;19139;49.372;8.580;2023-09-08T08:58:25;9.07;;;6.53;;
32786;SDS011;19139;49.372;8.580;2023-09-08T09:00:53;7.87;;;6.43;;
32786;SDS011;19139;49.372;8.580;2023-09-08T09:03:23;6.50;;;5.80;;
32786;SDS011;19139;49.372;8.580;2023-09-08T09:05:53;7.00;;;6.20;;
32786;SDS011;19139;49.372;8.580;2023-09-08T09:08:19;7.50;;;6.53;;
32786;SDS011;19139;49.372;8.580;2023-09-08T09:10:48;6.80;;;6.13;;
32786;SDS011;19139;49.372;8.580;2023-09-08T09:13:15;6.47;;;5.53;;
32786;SDS011;19139;49.372;8.580;2023-09-08T09:15:41;6.90;;;6.20;;
32786;SDS011;19139;49.372;8.580;2023-09-08T09:18:10;6.87;;;5.83;;
32786;SDS011;19139;49.372;8.580;2023-09-08T09:20:37;6.67;;;5.90;;
32786;SDS011;19139;49.372;8.580;2023-09-08T09:23:04;6.63;;;5.90;;
32786;SDS011;19139;49.372;8.580;2023-09-08T09:25:31;6.50;;;5.90;;
32786;SDS011;19139;49.372;8.580;2023-09-08T09:27:59;6.20;;;5.60;;
32786;SDS011;19139;49.372;8.580;2023-09-08T09:30:27;6.00;;;5.50;;
32786;SDS011;19139;49.372;8.580;2023-09-08T09:33:11;7.53;;;6.47;;
32786;SDS011;19139;49.372;8.580;2023-09-08T09:35:45;6.73;;;6.00;;
32786;SDS011;19139;49.372;8.580;2023-09-08T09:38:18;6.27;;;5.67;;
32786;SDS011;19139;49.372;8.580;2023-09-08T09:40:47;6.37;;;5.77;;
32786;SDS011;19139;49.372;8.580;2023-09-08T09:43:15;6.07;;;5.23;;
32786;SDS011;19139;49.372;8.580;2023-09-08T09:45:43;7.40;;;6.33;;
32786;SDS011;19139;49.372;8.580;2023-09-08T09:48:10;7.23;;;6.53;;
32786;SDS011;19139;49.372;8.580;2023-09-08T09:50:38;6.47;;;5.77;;
32786;SDS011;19139;49.372;8.580;2023-09-08T09:53:09;6.43;;;5.67;;
32786;SDS011;19139;49.372;8.580;2023-09-08T09:55:38;6.70;;;5.63;;
32786;SDS011;19139;49.372;8.580;2023-09-08T09:58:06;5.30;;;4.80;;
32786;SDS011;19139;49.372;8.580;2023-09-08T10:00:34;7.80;;;5.97;;
32786;SDS011;19139;49.372;8.580;2023-09-08T10:03:01;9.03;;;6.13;;
32786;SDS011;19139;49.372;8.580;2023-09-08T10:05:30;6.57;;;5.87;;
32786;SDS011;19139;49.372;8.580;2023-09-08T10:07:56;6.60;;;5.93;;
32786;SDS011;19139;49.372;8.580;2023-09-08T10:10:25;6.23;;;5.73;;
32786;SDS011;19139;49.372;8.580;2023-09-08T10:12:55;6.10;;;5.60;;
32786;SDS011;19139;49.372;8.580;2023-09-08T10:15:24;6.70;;;6.07;;
32786;SDS011;19139;49.372;8.580;2023-09-08T10:17:54;6.30;;;5.70;;
32786;SDS011;19139;49.372;8.580;2023-09-08T10:20:23;6.07;;;5.53;;
32786;SDS011;19139;49.372;8.580;2023-09-08T10:22:56;6.97;;;6.10;;
32786;SDS011;19139;49.372;8.580;2023-09-08T10:25:56;6.10;;;5.47;;
32786;SDS011;19139;49.372;8.580;2023-09-08T10:28:29;7.03;;;5.50;;
32786;SDS011;19139;49.372;8.580;2023-09-08T10:30:58;6.00;;;5.40;;
32786;SDS011;19139;49.372;8.580;2023-09-08T10:33:26;6.30;;;5.70;;
32786;SDS011;19139;49.372;8.580;2023-09-08T10:35:53;6.40;;;5.80;;
32786;SDS011;19139;49.372;8.580;2023-09-08T10:38:21;6.13;;;5.53;;
32786;SDS011;19139;49.372;8.580;2023-09-08T10:40:53;6.30;;;5.50;;
32786;SDS011;19139;49.372;8.580;2023-09-08T10:43:39;6.07;;;5.47;;
32786;SDS011;19139;49.372;8.580;2023-09-08T10:46:10;5.97;;;5.47;;
32786;SDS011;19139;49.372;8.580;2023-09-08T10:48:47;6.73;;;6.00;;
32786;SDS011;19139;49.372;8.580;2023-09-08T10:51:14;5.70;;;5.10;;
32786;SDS011;19139;49.372;8.580;2023-09-08T10:53:42;6.37;;;5.33;;
32786;SDS011;19139;49.372;8.580;2023-09-08T10:56:09;6.23;;;5.50;;
32786;SDS011;19139;49.372;8.580;2023-09-08T10:58:43;6.77;;;5.37;;
32786;SDS011;19139;49.372;8.580;2023-09-08T11:01:19;6.23;;;5.63;;
32786;SDS011;19139;49.372;8.580;2023-09-08T11:03:53;6.20;;;5.60;;
32786;SDS011;19139;49.372;8.580;2023-09-08T11:06:21;6.27;;;5.67;;
32786;SDS011;19139;49.372;8.580;2023-09-08T11:08:56;6.07;;;5.47;;
32786;SDS011;19139;49.372;8.580;2023-09-08T11:11:32;6.70;;;5.83;;
32786;SDS011;19139;49.372;8.580;2023-09-08T11:14:00;5.97;;;5.43;;
32786;SDS011;19139;49.372;8.580;2023-09-08T11:16:27;5.80;;;5.30;;
32786;SDS011;19139;49.372;8.580;2023-09-08T11:18:57;6.13;;;5.57;;
32786;SDS011;19139;49.372;8.580;2023-09-08T11:21:24;7.03;;;5.70;;
32786;SDS011;19139;49.372;8.580;2023-09-08T11:23:51;6.53;;;5.93;;
32786;SDS011;19139;49.372;8.580;2023-09-08T11:26:18;5.97;;;5.47;;
32786;SDS011;19139;49.372;8.580;2023-09-08T11:28:45;6.03;;;5.43;;
32786;SDS011;19139;49.372;8.580;2023-09-08T11:31:15;6.37;;;5.60;;
32786;SDS011;19139;49.372;8.580;2023-09-08T11:33:42;6.10;;;5.50;;
32786;SDS011;19139;49.372;8.580;2023-09-08T11:36:13;6.60;;;6.00;;
32786;SDS011;19139;49.372;8.580;2023-09-08T11:38:42;6.40;;;5.80;;
32786;SDS011;19139;49.372;8.580;2023-09-08T11:41:10;6.10;;;5.40;;
32786;SDS011;19139;49.372;8.580;2023-09-08T11:43:37;6.20;;;5.60;;
32786;SDS011;19139;49.372;8.580;2023-09-08T11:46:04;5.83;;;5.30;;
32786;SDS011;19139;49.372;8.580;2023-09-08T11:48:31;6.37;;;5.37;;
32786;SDS011;19139;49.372;8.580;2023-09-08T11:50:58;6.90;;;5.57;;
32786;SDS011;19139;49.372;8.580;2023-09-08T11:53:25;6.17;;;5.57;;
32786;SDS011;19139;49.372;8.580;2023-09-08T11:55:53;6.60;;;6.00;;
32786;SDS011;19139;49.372;8.580;2023-09-08T11:58:20;5.83;;;5.33;;
32786;SDS011;19139;49.372;8.580;2023-09-08T12:00:47;6.40;;;5.30;;
32786;SDS011;19139;49.372;8.580;2023-09-08T12:03:15;6.53;;;5.83;;
32786;SDS011;19139;49.372;8.580;2023-09-08T12:05:50;5.97;;;5.47;;
32786;SDS011;19139;49.372;8.580;2023-09-08T12:08:18;6.07;;;5.57;;
32786;SDS011;19139;49.372;8.580;2023-09-08T12:10:44;4.90;;;4.30;;
32786;SDS011;19139;49.372;8.580;2023-09-08T12:13:11;5.27;;;4.77;;
32786;SDS011;19139;49.372;8.580;2023-09-08T12:15:40;6.00;;;5.40;;
32786;SDS011;19139;49.372;8.580;2023-09-08T12:18:08;6.50;;;5.23;;
32786;SDS011;19139;49.372;8.580;2023-09-08T12:20:37;5.53;;;5.03;;
32786;SDS011;19139;49.372;8.580;2023-09-08T12:23:05;5.60;;;5.10;;
32786;SDS011;19139;49.372;8.580;2023-09-08T12:28:19;6.60;;;5.17;;
32786;SDS011;19139;49.372;8.580;2023-09-08T12:30:46;6.57;;;6.00;;
32786;SDS011;19139;49.372;8.580;2023-09-08T12:33:15;7.00;;;6.00;;
32786;SDS011;19139;49.372;8.580;2023-09-08T12:35:46;6.10;;;5.60;;
32786;SDS011;19139;49.372;8.580;2023-09-08T12:38:18;6.33;;;5.73;;
32786;SDS011;19139;49.372;8.580;2023-09-08T12:40:45;6.73;;;6.13;;
32786;SDS011;19139;49.372;8.580;2023-09-08T12:43:12;8.47;;;6.00;;
32786;SDS011;19139;49.372;8.580;2023-09-08T12:45:56;7.43;;;6.33;;
32786;SDS011;19139;49.372;8.580;2023-09-08T12:48:23;6.63;;;5.50;;
32786;SDS011;19139;49.372;8.580;2023-09-08T12:50:50;7.00;;;6.27;;
32786;SDS011;19139;49.372;8.580;2023-09-08T12:53:17;7.03;;;6.23;;
32786;SDS011;19139;49.372;8.580;2023-09-08T12:55:47;6.80;;;6.07;;
32786;SDS011;19139;49.372;8.580;2023-09-08T12:58:14;6.73;;;5.70;;
32786;SDS011;19139;49.372;8.580;2023-09-08T13:00:42;6.57;;;5.87;;
32786;SDS011;19139;49.372;8.580;2023-09-08T13:03:09;6.80;;;6.20;;
32786;SDS011;19139;49.372;8.580;2023-09-08T13:05:36;6.40;;;5.53;;
32786;SDS011;19139;49.372;8.580;2023-09-08T13:08:04;7.40;;;6.40;;
32786;SDS011;19139;49.372;8.580;2023-09-08T13:10:31;6.63;;;5.83;;
32786;SDS011;19139;49.372;8.580;2023-09-08T13:12:58;6.57;;;5.70;;
32786;SDS011;19139;49.372;8.580;2023-09-08T13:15:25;6.30;;;5.70;;
32786;SDS011;19139;49.372;8.580;2023-09-08T13:17:51;6.57;;;5.57;;
32786;SDS011;19139;49.372;8.580;2023-09-08T13:20:18;8.17;;;5.67;;
32786;SDS011;19139;49.372;8.580;2023-09-08T13:22:45;5.80;;;5.20;;
32786;SDS011;19139;49.372;8.580;2023-09-08T13:25:12;6.23;;;5.20;;
32786;SDS011;19139;49.372;8.580;2023-09-08T13:27:42;5.93;;;5.40;;
32786;SDS011;19139;49.372;8.580;2023-09-08T13:30:09;6.40;;;5.70;;
32786;SDS011;19139;49.372;8.580;2023-09-08T13:32:37;6.90;;;6.23;;
32786;SDS011;19139;49.372;8.580;2023-09-08T13:35:05;5.90;;;5.33;;
32786;SDS011;19139;49.372;8.580;2023-09-08T13:37:32;6.20;;;5.60;;
32786;SDS011;19139;49.372;8.580;2023-09-08T13:40:06;6.47;;;5.87;;
32786;SDS011;19139;49.372;8.580;2023-09-08T13:42:34;7.10;;;6.00;;
32786;SDS011;19139;49.372;8.580;2023-09-08T13:45:01;6.33;;;5.73;;
32786;SDS011;19139;49.372;8.580;2023-09-08T13:47:29;5.50;;;5.00;;
32786;SDS011;19139;49.372;8.580;2023-09-08T13:49:57;5.67;;;5.10;;
32786;SDS011;19139;49.372;8.580;2023-09-08T13:52:26;6.17;;;5.63;;
32786;SDS011;19139;49.372;8.580;2023-09-08T13:54:57;5.90;;;5.40;;
32786;SDS011;19139;49.372;8.580;2023-09-08T13:57:27;6.20;;;5.53;;
32786;SDS011;19139;49.372;8.580;2023-09-08T13:59:54;7.63;;;6.17;;
32786;SDS011;19139;49.372;8.580;2023-09-08T14:02:23;5.43;;;4.93;;
32786;SDS011;19139;49.372;8.580;2023-09-08T14:04:52;5.90;;;5.30;;
32786;SDS011;19139;49.372;8.580;2023-09-08T14:07:21;6.33;;;5.67;;
32786;SDS011;19139;49.372;8.580;2023-09-08T14:09:57;6.87;;;6.13;;
32786;SDS011;19139;49.372;8.580;2023-09-08T14:12:27;6.00;;;5.50;;
32786;SDS011;19139;49.372;8.580;2023-09-08T14:15:00;6.03;;;5.47;;
32786;SDS011;19139;49.372;8.580;2023-09-08T14:17:28;6.30;;;5.70;;
32786;SDS011;19139;49.372;8.580;2023-09-08T14:19:54;5.90;;;5.30;;
32786;SDS011;19139;49.372;8.580;2023-09-08T14:22:21;6.60;;;6.00;;
32786;SDS011;19139;49.372;8.580;2023-09-08T14:24:48;5.17;;;4.77;;
32786;SDS011;19139;49.372;8.580;2023-09-08T14:27:15;8.23;;;5.60;;
32786;SDS011;19139;49.372;8.580;2023-09-08T14:29:44;6.70;;;6.07;;
32786;SDS011;19139;49.372;8.580;2023-09-08T14:32:11;5.73;;;5.23;;
32786;SDS011;19139;49.372;8.580;2023-09-08T14:34:38;5.90;;;5.40;;
32786;SDS011;19139;49.372;8.580;2023-09-08T14:37:04;6.17;;;5.57;;
32786;SDS011;19139;49.372;8.580;2023-09-08T14:39:34;5.90;;;5.27;;
32786;SDS011;19139;49.372;8.580;2023-09-08T14:42:01;5.90;;;5.33;;
32786;SDS011;19139;49.372;8.580;2023-09-08T14:44:27;6.63;;;5.70;;
32786;SDS011;19139;49.372;8.580;2023-09-08T14:46:54;5.60;;;5.10;;
32786;SDS011;19139;49.372;8.580;2023-09-08T14:49:21;5.97;;;5.30;;
32786;SDS011;19139;49.372;8.580;2023-09-08T14:51:47;6.77;;;5.70;;
32786;SDS011;19139;49.372;8.580;2023-09-08T14:54:14;6.13;;;5.53;;